createdAt,value
2022-10-19T00:02:04.296Z,11.82
2022-10-19T00:04:31.019Z,11.74
2022-10-19T00:06:57.511Z,11.82
2022-10-19T00:09:23.938Z,11.73
2022-10-19T00:11:51.074Z,11.66
2022-10-19T00:14:21.143Z,11.73
2022-10-19T00:16:49.499Z,11.74
2022-10-19T00:19:20.830Z,11.89
2022-10-19T00:21:47.861Z,11.62
2022-10-19T00:24:14.607Z,11.71
2022-10-19T00:26:41.154Z,11.71
2022-10-19T00:29:08.447Z,11.67
2022-10-19T00:31:35.013Z,11.72
2022-10-19T00:34:01.528Z,11.53
2022-10-19T00:36:39.015Z,11.66
2022-10-19T00:39:07.530Z,11.71
2022-10-19T00:41:35.519Z,11.69
2022-10-19T00:44:06.170Z,11.81
2022-10-19T00:46:37.792Z,11.73
2022-10-19T00:49:10.793Z,11.73
2022-10-19T00:51:41.759Z,11.81
2022-10-19T00:54:08.669Z,11.76
2022-10-19T00:56:35.971Z,11.63
2022-10-19T00:59:04.114Z,11.62
2022-10-19T01:01:31.153Z,11.69
2022-10-19T01:03:57.834Z,11.71
2022-10-19T01:06:24.964Z,11.70
2022-10-19T01:08:51.396Z,11.62
2022-10-19T01:11:39.906Z,11.61
2022-10-19T01:14:17.276Z,11.66
2022-10-19T01:17:00.021Z,11.62
2022-10-19T01:20:00.312Z,11.57
2022-10-19T01:22:55.385Z,11.50
2022-10-19T01:25:55.746Z,11.36
2022-10-19T01:28:54.084Z,11.31
2022-10-19T01:31:25.728Z,11.27
2022-10-19T01:34:00.272Z,11.39
2022-10-19T01:37:17.636Z,11.28
2022-10-19T01:39:52.776Z,11.27
2022-10-19T01:42:28.667Z,11.26
2022-10-19T01:45:01.592Z,11.33
2022-10-19T01:47:35.932Z,11.25
2022-10-19T01:50:07.802Z,11.26
2022-10-19T01:52:35.187Z,11.21
2022-10-19T01:55:03.247Z,11.16
2022-10-19T01:57:35.318Z,11.16
2022-10-19T02:00:07.409Z,11.07
2022-10-19T02:02:40.747Z,11.14
2022-10-19T02:05:07.803Z,11.14
2022-10-19T02:07:35.111Z,11.07
2022-10-19T02:10:01.670Z,11.07
2022-10-19T02:12:29.036Z,11.19
2022-10-19T02:14:58.827Z,11.16
2022-10-19T02:17:29.120Z,11.11
2022-10-19T02:19:55.689Z,11.19
2022-10-19T02:22:22.227Z,11.20
2022-10-19T02:24:48.804Z,11.03
2022-10-19T02:27:15.605Z,11.15
2022-10-19T02:29:42.033Z,11.15
2022-10-19T02:32:09.335Z,11.12
2022-10-19T02:34:36.597Z,11.18
2022-10-19T02:37:03.413Z,11.24
2022-10-19T02:39:29.907Z,11.07
2022-10-19T02:42:02.109Z,11.08
2022-10-19T02:44:37.798Z,11.09
2022-10-19T02:47:26.391Z,11.09
2022-10-19T02:49:52.941Z,11.05
2022-10-19T02:52:19.533Z,11.00
2022-10-19T02:54:45.989Z,11.00
2022-10-19T02:57:24.283Z,11.05
2022-10-19T02:59:51.859Z,10.88
2022-10-19T03:02:19.552Z,10.94
2022-10-19T03:07:16.368Z,11.04
2022-10-19T03:09:43.507Z,11.09
2022-10-19T03:12:10.757Z,11.08
2022-10-19T03:14:37.219Z,11.15
2022-10-19T03:17:04.077Z,11.05
2022-10-19T03:19:30.865Z,11.03
2022-10-19T03:21:57.534Z,11.00
2022-10-19T03:24:24.238Z,10.93
2022-10-19T03:26:50.711Z,11.00
2022-10-19T03:29:17.286Z,11.04
2022-10-19T03:31:43.774Z,10.95
2022-10-19T03:34:10.282Z,11.00
2022-10-19T03:36:38.556Z,10.85
2022-10-19T03:39:07.749Z,10.83
2022-10-19T03:41:35.661Z,10.84
2022-10-19T03:44:02.394Z,10.81
2022-10-19T03:46:29.172Z,10.72
2022-10-19T03:48:55.669Z,10.77
2022-10-19T03:51:24.789Z,10.85
2022-10-19T03:54:13.016Z,10.71
2022-10-19T03:56:39.461Z,10.79
2022-10-19T03:59:06.484Z,10.64
2022-10-19T04:01:35.920Z,10.65
2022-10-19T04:04:04.998Z,10.70
2022-10-19T04:06:36.392Z,10.71
2022-10-19T04:09:04.366Z,10.73
2022-10-19T04:11:31.812Z,10.61
2022-10-19T04:13:59.029Z,10.69
2022-10-19T04:16:27.392Z,10.77
2022-10-19T04:18:54.252Z,10.71
2022-10-19T04:21:26.812Z,10.68
2022-10-19T04:23:57.436Z,10.61
2022-10-19T04:26:24.023Z,10.62
2022-10-19T04:28:50.622Z,10.58
2022-10-19T04:31:17.110Z,10.54
2022-10-19T04:33:43.684Z,10.53
2022-10-19T04:36:11.513Z,10.57
2022-10-19T04:38:39.334Z,10.51
2022-10-19T04:41:11.295Z,10.52
2022-10-19T04:43:37.978Z,10.48
2022-10-19T04:46:06.246Z,10.42
2022-10-19T04:48:34.154Z,10.40
2022-10-19T04:51:00.668Z,10.32
2022-10-19T04:53:28.040Z,10.26
2022-10-19T04:55:54.513Z,10.12
2022-10-19T04:58:20.978Z,10.19
2022-10-19T05:00:47.561Z,10.10
2022-10-19T05:03:14.174Z,10.13
2022-10-19T05:05:40.992Z,10.11
2022-10-19T05:08:07.573Z,10.20
2022-10-19T05:10:34.005Z,10.12
2022-10-19T05:13:01.847Z,10.22
2022-10-19T05:15:29.149Z,10.08
2022-10-19T05:17:55.867Z,10.15
2022-10-19T05:20:22.621Z,10.20
2022-10-19T05:22:49.380Z,10.18
2022-10-19T05:25:16.053Z,10.25
2022-10-19T05:27:42.508Z,10.23
2022-10-19T05:30:09.497Z,10.01
2022-10-19T05:32:35.931Z,10.03
2022-10-19T05:35:02.388Z,10.16
2022-10-19T05:37:28.798Z,10.02
2022-10-19T05:39:55.551Z,9.98
2022-10-19T05:42:21.989Z,10.05
2022-10-19T05:44:48.510Z,10.08
2022-10-19T05:47:14.953Z,10.08
2022-10-19T05:49:41.551Z,10.20
2022-10-19T05:52:07.976Z,10.01
2022-10-19T05:54:36.082Z,10.17
2022-10-19T05:57:02.702Z,10.18
2022-10-19T05:59:29.251Z,10.02
2022-10-19T06:01:55.731Z,10.27
2022-10-19T06:04:22.253Z,10.23
2022-10-19T06:06:48.762Z,10.16
2022-10-19T06:09:15.203Z,10.25
2022-10-19T06:11:42.615Z,10.13
2022-10-19T06:14:13.153Z,10.09
2022-10-19T06:16:39.614Z,10.09
2022-10-19T06:19:07.407Z,10.03
2022-10-19T06:21:34.562Z,9.96
2022-10-19T06:24:05.213Z,10.06
2022-10-19T06:26:33.284Z,9.86
2022-10-19T06:29:01.242Z,9.98
2022-10-19T06:31:32.602Z,10.01
2022-10-19T06:33:59.273Z,9.83
2022-10-19T06:36:29.455Z,9.91
2022-10-19T06:38:56.675Z,9.95
2022-10-19T06:41:23.701Z,9.95
2022-10-19T06:43:51.395Z,9.80
2022-10-19T06:46:20.676Z,9.85
2022-10-19T06:48:51.625Z,9.91
2022-10-19T06:51:18.121Z,10.04
2022-10-19T06:53:44.538Z,9.97
2022-10-19T06:56:11.036Z,10.00
2022-10-19T06:58:38.323Z,9.98
2022-10-19T07:01:07.650Z,10.07
2022-10-19T07:03:34.918Z,9.99
2022-10-19T07:06:03.660Z,9.95
2022-10-19T07:08:31.653Z,10.12
2022-10-19T07:11:00.966Z,10.15
2022-10-19T07:13:27.950Z,10.12
2022-10-19T07:16:05.627Z,10.12
2022-10-19T07:18:32.711Z,10.09
2022-10-19T07:21:01.213Z,9.86
2022-10-19T07:23:28.776Z,9.73
2022-10-19T07:26:00.292Z,9.89
2022-10-19T07:28:28.017Z,9.80
2022-10-19T07:30:54.515Z,9.91
2022-10-19T07:33:21.234Z,10.15
2022-10-19T07:35:47.861Z,10.53
2022-10-19T07:38:14.328Z,10.77
2022-10-19T07:40:44.759Z,10.95
2022-10-19T07:43:13.780Z,11.21
2022-10-19T07:45:40.229Z,11.23
2022-10-19T07:48:06.705Z,11.45
2022-10-19T07:50:33.134Z,11.51
2022-10-19T07:52:59.608Z,11.55
2022-10-19T07:55:26.064Z,12.06
2022-10-19T07:57:52.507Z,12.27
2022-10-19T08:00:19.024Z,12.35
2022-10-19T08:02:59.667Z,12.40
2022-10-19T08:05:35.739Z,12.23
2022-10-19T08:08:02.222Z,11.97
2022-10-19T08:10:28.685Z,11.42
2022-10-19T08:12:55.183Z,11.07
2022-10-19T08:15:21.648Z,11.38
2022-10-19T08:17:48.099Z,11.92
2022-10-19T08:20:14.578Z,12.06
2022-10-19T08:22:41.876Z,11.96
2022-10-19T08:25:08.484Z,11.67
2022-10-19T08:30:06.807Z,11.14
2022-10-19T08:32:33.461Z,10.95
2022-10-19T08:35:00.106Z,10.61
2022-10-19T08:37:43.845Z,10.68
2022-10-19T08:40:26.670Z,11.59
2022-10-19T08:43:06.221Z,11.98
2022-10-19T08:45:39.106Z,12.58
2022-10-19T08:48:21.131Z,12.76
2022-10-19T08:50:47.794Z,13.10
2022-10-19T08:53:17.880Z,13.19
2022-10-19T08:55:50.051Z,13.47
2022-10-19T08:58:32.324Z,13.44
2022-10-19T09:01:21.926Z,13.30
2022-10-19T09:04:02.795Z,12.69
2022-10-19T09:06:40.167Z,12.65
2022-10-19T09:09:06.771Z,12.38
2022-10-19T09:11:38.215Z,12.14
2022-10-19T09:14:15.389Z,11.87
2022-10-19T09:16:42.215Z,11.50
2022-10-19T09:19:26.277Z,11.18
2022-10-19T09:22:08.025Z,11.70
2022-10-19T09:24:52.678Z,12.22
2022-10-19T09:27:28.862Z,12.58
2022-10-19T09:30:03.671Z,13.04
2022-10-19T09:32:37.674Z,13.44
2022-10-19T09:35:07.611Z,13.73
2022-10-19T09:37:40.624Z,13.78
2022-10-19T09:40:14.789Z,13.43
2022-10-19T09:42:41.247Z,12.86
2022-10-19T09:45:38.106Z,12.66
2022-10-19T09:48:15.402Z,12.17
2022-10-19T09:50:43.919Z,12.12
2022-10-19T09:53:18.578Z,12.35
2022-10-19T09:58:19.947Z,12.87
2022-10-19T10:00:51.295Z,13.44
2022-10-19T10:03:35.337Z,13.76
2022-10-19T10:06:07.900Z,13.20
2022-10-19T10:08:37.827Z,12.92
2022-10-19T10:11:09.295Z,12.59
2022-10-19T10:13:41.774Z,12.36
2022-10-19T10:16:11.439Z,11.98
2022-10-19T10:18:50.053Z,11.68
2022-10-19T10:21:27.286Z,11.32
2022-10-19T10:24:16.819Z,11.27
2022-10-19T10:26:46.426Z,11.10
2022-10-19T10:29:30.142Z,11.16
2022-10-19T10:32:19.769Z,11.90
2022-10-19T10:34:51.252Z,12.32
2022-10-19T10:37:24.515Z,12.35
2022-10-19T10:39:52.900Z,12.45
2022-10-19T10:42:24.321Z,12.57
2022-10-19T10:44:52.491Z,12.70
2022-10-19T10:47:22.579Z,12.47
2022-10-19T10:50:06.461Z,12.21
2022-10-19T10:52:33.685Z,12.00
2022-10-19T10:55:09.560Z,11.76
2022-10-19T10:57:39.810Z,11.62
2022-10-19T11:00:11.328Z,11.33
2022-10-19T11:02:56.183Z,11.09
2022-10-19T11:05:32.015Z,11.07
2022-10-19T11:08:21.068Z,10.96
2022-10-19T11:10:49.868Z,11.01
2022-10-19T11:13:21.811Z,11.60
2022-10-19T11:16:05.045Z,12.48
2022-10-19T11:18:38.210Z,13.14
2022-10-19T11:21:10.417Z,13.30
2022-10-19T11:24:15.552Z,13.07
2022-10-19T11:27:02.721Z,12.55
2022-10-19T11:29:54.624Z,12.23
2022-10-19T11:32:50.219Z,11.91
2022-10-19T11:35:53.047Z,11.63
2022-10-19T11:38:31.327Z,11.41
2022-10-19T11:41:17.295Z,11.42
2022-10-19T11:44:17.965Z,11.39
2022-10-19T11:46:56.538Z,11.50
2022-10-19T11:49:25.940Z,11.20
2022-10-19T11:51:57.435Z,11.88
2022-10-19T11:54:54.950Z,12.44
2022-10-19T11:57:25.195Z,12.13
2022-10-19T12:00:14.659Z,12.25
2022-10-19T12:03:06.396Z,11.75
2022-10-19T12:05:46.318Z,11.65
2022-10-19T12:08:36.030Z,11.28
2022-10-19T12:11:05.382Z,11.61
2022-10-19T12:13:48.034Z,11.97
2022-10-19T12:16:15.255Z,12.44
2022-10-19T12:18:50.678Z,12.00
2022-10-19T12:21:31.720Z,12.25
2022-10-19T12:23:59.471Z,12.18
2022-10-19T12:26:28.038Z,12.05
2022-10-19T12:28:57.732Z,11.70
2022-10-19T12:31:25.043Z,11.67
2022-10-19T12:34:22.443Z,11.90
2022-10-19T12:36:55.775Z,12.03
2022-10-19T12:39:33.811Z,12.39
2022-10-19T12:42:10.719Z,12.43
2022-10-19T12:44:58.824Z,12.70
2022-10-19T12:47:26.102Z,12.89
2022-10-19T12:49:57.353Z,13.20
2022-10-19T12:52:37.246Z,13.53
2022-10-19T12:55:15.954Z,13.40
2022-10-19T12:57:48.332Z,13.82
2022-10-19T13:00:23.872Z,13.65
2022-10-19T13:03:23.958Z,13.05
2022-10-19T13:05:57.687Z,12.63
2022-10-19T13:08:33.872Z,12.20
2022-10-19T13:11:14.436Z,11.77
2022-10-19T13:13:59.440Z,11.43
2022-10-19T13:16:28.873Z,11.05
2022-10-19T13:19:13.547Z,10.74
2022-10-19T13:21:44.971Z,10.76
2022-10-19T13:24:23.678Z,10.73
2022-10-19T13:27:02.343Z,10.57
2022-10-19T13:29:38.795Z,10.67
2022-10-19T13:32:38.105Z,11.21
2022-10-19T13:35:24.438Z,11.44
2022-10-19T13:38:09.296Z,11.73
2022-10-19T13:40:38.195Z,11.83
2022-10-19T13:43:04.678Z,11.49
2022-10-19T13:45:31.143Z,11.44
2022-10-19T13:48:08.051Z,11.30
2022-10-19T13:50:56.871Z,11.08
2022-10-19T13:53:57.045Z,11.11
2022-10-19T13:57:14.432Z,11.02
2022-10-19T14:00:05.001Z,10.98
2022-10-19T14:02:51.759Z,10.94
2022-10-19T14:05:58.778Z,10.61
2022-10-19T14:08:43.608Z,10.46
2022-10-19T14:11:35.676Z,10.14
2022-10-19T14:14:10.940Z,9.74
2022-10-19T14:16:46.567Z,9.68
2022-10-19T14:19:14.440Z,9.58
2022-10-19T14:21:41.258Z,9.59
2022-10-19T14:24:40.318Z,9.50
2022-10-19T14:27:07.815Z,9.47
2022-10-19T14:29:45.586Z,9.28
2022-10-19T14:32:12.438Z,9.39
2022-10-19T14:34:46.830Z,9.52
2022-10-19T14:37:17.559Z,9.52
2022-10-19T14:39:58.175Z,9.54
2022-10-19T14:42:24.665Z,9.62
2022-10-19T14:44:51.115Z,9.79
2022-10-19T14:47:27.086Z,9.71
2022-10-19T14:49:53.715Z,9.77
2022-10-19T14:52:32.759Z,9.83
2022-10-19T14:55:00.747Z,10.00
2022-10-19T14:57:29.781Z,10.04
2022-10-19T15:00:05.113Z,9.92
2022-10-19T15:02:40.245Z,9.67
2022-10-19T15:05:17.082Z,9.62
2022-10-19T15:07:44.501Z,9.50
2022-10-19T15:10:33.553Z,9.51
2022-10-19T15:13:05.146Z,9.68
2022-10-19T15:15:33.955Z,9.62
2022-10-19T15:18:00.430Z,9.67
2022-10-19T15:20:43.879Z,9.57
2022-10-19T15:23:33.918Z,9.69
2022-10-19T15:26:02.193Z,9.57
2022-10-19T15:28:39.022Z,9.37
2022-10-19T15:31:18.170Z,9.16
2022-10-19T15:33:48.590Z,9.23
2022-10-19T15:36:18.344Z,9.00
2022-10-19T15:39:06.109Z,8.86
2022-10-19T15:41:44.199Z,9.03
2022-10-19T15:44:42.613Z,9.06
2022-10-19T15:47:15.155Z,8.88
2022-10-19T15:49:41.575Z,8.81
2022-10-19T15:52:22.878Z,8.64
2022-10-19T15:54:50.793Z,8.60
2022-10-19T15:57:37.285Z,8.75
2022-10-19T16:00:16.648Z,8.85
2022-10-19T16:02:43.347Z,8.56
2022-10-19T16:05:10.912Z,8.51
2022-10-19T16:07:39.957Z,8.51
2022-10-19T16:10:07.194Z,8.53
2022-10-19T16:12:33.711Z,8.44
2022-10-19T16:15:00.168Z,8.41
2022-10-19T16:17:27.142Z,8.38
2022-10-19T16:19:53.595Z,8.52
2022-10-19T16:22:20.220Z,8.27
2022-10-19T16:24:46.713Z,8.21
2022-10-19T16:27:15.221Z,8.49
2022-10-19T16:29:42.885Z,8.56
2022-10-19T16:32:09.577Z,8.65
2022-10-19T16:34:36.130Z,8.59
2022-10-19T16:37:05.815Z,8.40
2022-10-19T16:39:33.644Z,8.50
2022-10-19T16:42:00.329Z,8.46
2022-10-19T16:44:26.862Z,8.59
2022-10-19T16:46:53.330Z,8.58
2022-10-19T16:49:19.770Z,8.74
2022-10-19T16:51:46.204Z,8.72
2022-10-19T16:54:13.199Z,8.72
2022-10-19T16:56:44.728Z,8.63
2022-10-19T16:59:14.331Z,8.53
2022-10-19T17:01:41.695Z,8.51
2022-10-19T17:04:08.214Z,8.40
2022-10-19T17:06:34.688Z,8.27
2022-10-19T17:11:48.979Z,8.31
2022-10-19T17:14:15.427Z,8.22
2022-10-19T17:16:41.894Z,8.25
2022-10-19T17:19:08.882Z,8.17
2022-10-19T17:21:40.117Z,8.20
2022-10-19T17:24:08.443Z,8.12
2022-10-19T17:26:37.978Z,8.13
2022-10-19T17:29:05.967Z,8.03
2022-10-19T17:31:32.562Z,8.12
2022-10-19T17:34:00.657Z,8.02
2022-10-19T17:36:29.512Z,7.98
2022-10-19T17:38:57.823Z,7.79
2022-10-19T17:41:24.890Z,7.96
2022-10-19T17:43:51.833Z,8.09
2022-10-19T17:46:26.166Z,7.95
2022-10-19T17:48:52.783Z,8.01
2022-10-19T17:51:32.149Z,7.98
2022-10-19T17:54:03.053Z,8.08
2022-10-19T17:56:29.922Z,8.12
2022-10-19T17:58:57.489Z,7.84
2022-10-19T18:01:24.666Z,8.05
2022-10-19T18:03:51.411Z,7.78
2022-10-19T18:06:23.288Z,7.92
2022-10-19T18:08:52.575Z,7.93
2022-10-19T18:11:20.610Z,7.95
2022-10-19T18:13:47.558Z,7.96
2022-10-19T18:16:20.405Z,8.27
2022-10-19T18:18:49.026Z,8.17
2022-10-19T18:21:18.054Z,8.20
2022-10-19T18:24:03.717Z,8.08
2022-10-19T18:26:32.385Z,8.03
2022-10-19T18:28:59.903Z,7.93
2022-10-19T18:31:29.352Z,7.86
2022-10-19T18:34:01.457Z,7.99
2022-10-19T18:36:28.243Z,8.05
2022-10-19T18:38:56.731Z,8.05
2022-10-19T18:41:24.025Z,7.86
2022-10-19T18:43:52.433Z,7.95
2022-10-19T18:46:20.584Z,7.99
2022-10-19T18:48:47.354Z,8.04
2022-10-19T18:51:15.504Z,8.12
2022-10-19T18:53:42.715Z,8.12
2022-10-19T18:56:11.456Z,8.09
2022-10-19T18:58:38.388Z,8.12
2022-10-19T19:01:16.232Z,8.10
2022-10-19T19:03:46.400Z,8.23
2022-10-19T19:06:19.449Z,8.21
2022-10-19T19:08:46.256Z,8.13
2022-10-19T19:11:15.202Z,8.19
2022-10-19T19:13:42.564Z,8.37
2022-10-19T19:16:09.543Z,8.17
2022-10-19T19:18:36.032Z,8.15
2022-10-19T19:21:03.502Z,8.15
2022-10-19T19:23:30.677Z,7.92
2022-10-19T19:25:57.231Z,7.85
2022-10-19T19:28:23.698Z,7.59
2022-10-19T19:30:50.166Z,7.54
2022-10-19T19:33:16.730Z,7.56
2022-10-19T19:35:47.354Z,7.52
2022-10-19T19:38:14.668Z,7.59
2022-10-19T19:40:45.739Z,7.44
2022-10-19T19:43:13.829Z,7.35
2022-10-19T19:45:41.201Z,7.18
2022-10-19T19:48:08.933Z,6.93
2022-10-19T19:50:36.657Z,7.01
2022-10-19T19:53:03.952Z,7.11
2022-10-19T19:55:36.758Z,6.90
2022-10-19T19:58:05.560Z,7.08
2022-10-19T20:00:32.018Z,6.97
2022-10-19T20:02:59.347Z,7.04
2022-10-19T20:05:26.700Z,6.97
2022-10-19T20:07:53.263Z,6.97
2022-10-19T20:10:19.703Z,6.87
2022-10-19T20:12:47.436Z,7.12
2022-10-19T20:15:16.193Z,6.97
2022-10-19T20:17:42.847Z,7.09
2022-10-19T20:20:10.608Z,7.11
2022-10-19T20:22:37.622Z,6.92
2022-10-19T20:25:05.083Z,6.73
2022-10-19T20:27:35.362Z,6.90
2022-10-19T20:30:02.048Z,6.83
2022-10-19T20:32:29.249Z,6.77
2022-10-19T20:34:55.703Z,6.66
2022-10-19T20:37:22.356Z,6.71
2022-10-19T20:39:49.077Z,6.65
2022-10-19T20:42:16.683Z,6.88
2022-10-19T20:44:43.213Z,6.81
2022-10-19T20:47:10.087Z,6.69
2022-10-19T20:49:36.621Z,6.66
2022-10-19T20:52:03.738Z,6.76
2022-10-19T20:54:30.168Z,6.82
2022-10-19T20:56:56.649Z,6.90
2022-10-19T20:59:26.761Z,6.69
2022-10-19T21:01:55.753Z,6.51
2022-10-19T21:04:23.110Z,6.65
2022-10-19T21:06:50.710Z,6.67
2022-10-19T21:09:19.839Z,6.77
2022-10-19T21:11:47.879Z,6.66
2022-10-19T21:14:22.450Z,6.75
2022-10-19T21:16:52.182Z,6.77
2022-10-19T21:19:24.009Z,6.80
2022-10-19T21:21:55.438Z,6.54
2022-10-19T21:24:24.116Z,6.62
2022-10-19T21:29:18.770Z,6.62
2022-10-19T21:31:51.216Z,6.80
2022-10-19T21:34:20.740Z,6.76
2022-10-19T21:36:47.176Z,6.81
2022-10-19T21:39:13.644Z,7.03
2022-10-19T21:41:40.130Z,7.11
2022-10-19T21:44:06.656Z,7.12
2022-10-19T21:46:33.505Z,7.18
2022-10-19T21:49:00.000Z,7.04
2022-10-19T21:51:55.694Z,7.11
2022-10-19T21:54:29.072Z,7.16
2022-10-19T21:56:57.669Z,7.07
2022-10-19T21:59:24.776Z,7.17
2022-10-19T22:01:51.385Z,7.29
2022-10-19T22:04:18.435Z,7.36
2022-10-19T22:06:45.089Z,7.22
2022-10-19T22:09:17.683Z,7.34
2022-10-19T22:11:44.346Z,7.37
2022-10-19T22:14:12.940Z,7.31
2022-10-19T22:16:39.887Z,7.41
2022-10-19T22:19:06.612Z,7.41
2022-10-19T22:21:34.288Z,7.46
2022-10-19T22:24:03.289Z,7.34
2022-10-19T22:26:31.884Z,7.40
2022-10-19T22:28:59.740Z,7.42
2022-10-19T22:31:27.800Z,7.50
2022-10-19T22:33:54.241Z,7.44
2022-10-19T22:36:20.844Z,7.46
2022-10-19T22:38:47.301Z,7.34
2022-10-19T22:41:13.792Z,7.23
2022-10-19T22:43:40.263Z,7.14
2022-10-19T22:46:06.782Z,7.12
2022-10-19T22:48:33.874Z,7.03
2022-10-19T22:51:00.335Z,7.05
2022-10-19T22:53:26.894Z,7.00
2022-10-19T22:55:53.394Z,7.15
2022-10-19T22:58:20.095Z,7.05
2022-10-19T23:00:46.837Z,7.06
2022-10-19T23:03:13.937Z,7.03
2022-10-19T23:05:40.447Z,7.10
2022-10-19T23:08:07.327Z,7.35
2022-10-19T23:10:33.888Z,7.36
2022-10-19T23:13:00.336Z,7.23
2022-10-19T23:15:26.858Z,7.20
2022-10-19T23:17:53.365Z,7.37
2022-10-19T23:20:19.823Z,7.26
2022-10-19T23:22:46.377Z,7.12
2022-10-19T23:25:12.847Z,7.05
2022-10-19T23:27:39.458Z,7.12
2022-10-19T23:30:06.839Z,7.24
2022-10-19T23:32:33.338Z,7.12
2022-10-19T23:34:59.877Z,7.21
2022-10-19T23:37:26.432Z,7.39
2022-10-19T23:39:52.880Z,7.16
2022-10-19T23:42:19.335Z,7.17
2022-10-19T23:44:45.901Z,7.08
2022-10-19T23:47:12.386Z,7.05
2022-10-19T23:49:38.837Z,7.13
2022-10-19T23:52:06.669Z,7.11
2022-10-19T23:54:33.128Z,7.10
2022-10-19T23:56:59.749Z,7.13
2022-10-19T23:59:26.222Z,7.26
